Weather reports worldwide

Advertisment
Bealach, United Kingdom (3039): temperature & dewpoint: 17.08.2019 13:00:00 - 23.08.2019 13:00:00 (BST)Bealach, United Kingdom (3039): wind speed & gusts: 17.08.2019 13:00:00 - 23.08.2019 13:00:00 (BST)Bealach, United Kingdom (3039): wind direction: 17.08.2019 13:00:00 - 23.08.2019 13:00:00 (BST)
Date & Time tt [°C] td [°C] ff [km/h] ff [kn] fx [km/h] fx [kn] dd
23.08.2019 13:00:00 9,9 9,8 67 36 89 48 SSW
23.08.2019 12:00:00 9,7 9,7 63 34 93 50 S
23.08.2019 11:00:00 9,9 9,9 68 37 91 49 S
23.08.2019 10:00:00 10,2 10,2 70 38 93 50 S
23.08.2019 09:00:00 10,3 10,3 80 43 100 54 SSW
23.08.2019 08:00:00 10,3 10,2 72 39 93 50 SSW
23.08.2019 07:00:00 10,3 10,3 74 40 96 52 SSW
23.08.2019 06:00:00 10,4 10,4 70 38 85 46 SSW
23.08.2019 05:00:00 10,6 10,5 68 37 83 45 SSW
23.08.2019 04:00:00 10,7 10,7 61 33 76 41 SSW
23.08.2019 03:00:00 10,8 10,8 44 24 54 29 SW
23.08.2019 02:00:00 10,7 10,7 44 24 63 34 WSW
23.08.2019 01:00:00 10,1 10,1 52 28 63 34 SW
23.08.2019 00:00:00 8,9 8,9 41 22 46 25 SW
22.08.2019 23:00:00 7,9 7,9 37 20 52 28 WSW
22.08.2019 22:00:00 8,4 8,4 46 25 54 29 SW
22.08.2019 21:00:00 8,1 8,1 42 23 54 29 WSW
22.08.2019 20:00:00 8,0 8,0 48 26 80 43 WSW
22.08.2019 19:00:00 8,2 8,1 72 39 83 45 WSW
22.08.2019 18:00:00 8,7 8,6 48 26 72 39 WSW
22.08.2019 17:00:00 8,7 8,6 59 32 83 45 SSW
22.08.2019 16:00:00 8,7 8,7 68 37 104 56 SSW
22.08.2019 15:00:00 9,0 9,0 76 41 113 61 SSW
22.08.2019 14:00:00 8,8 8,8 76 41 107 58 S
22.08.2019 13:00:00 8,1 8,1 89 48 111 60 SSW
22.08.2019 12:00:00 7,8 7,8 81 44 115 62 SSW
22.08.2019 11:00:00 8,2 8,2 74 40 100 54 S
22.08.2019 10:00:00 8,0 8,0 76 41 96 52 SSW
22.08.2019 09:00:00 7,9 7,9 74 40 107 58 SSW
22.08.2019 08:00:00 7,6 7,6 65 35 89 48 SSW
22.08.2019 07:00:00 6,6 6,6 74 40 91 49 SSW
22.08.2019 06:00:00 7,4 7,4 61 33 87 47 SSW
22.08.2019 05:00:00 7,7 7,7 72 39 89 48 SSW
22.08.2019 04:00:00 7,2 7,1 67 36 87 47 SSW
22.08.2019 03:00:00 7,6 7,6 63 34 83 45 SSW
22.08.2019 02:00:00 7,6 7,6 65 35 83 45 SSW
22.08.2019 01:00:00 7,0 6,9 68 37 93 50 SSW
22.08.2019 00:00:00 7,8 7,7 61 33 83 45 SSW
21.08.2019 23:00:00 7,9 7,9 55 30 80 43 SSW
21.08.2019 22:00:00 7,6 7,6 59 32 78 42 SSW
21.08.2019 21:00:00 7,4 7,4 42 23 54 29 SW
21.08.2019 20:00:00 7,9 7,9 37 20 65 35 WSW
21.08.2019 19:00:00 8,6 8,6 48 26 87 47 SSW
21.08.2019 18:00:00 8,9 8,9 67 36 93 50 S
21.08.2019 17:00:00 8,5 8,5 26 14 72 39 SSE
21.08.2019 16:00:00 7,9 7,9 28 15 91 49 S
21.08.2019 15:00:00 7,6 7,6 54 29 102 55 S
21.08.2019 14:00:00 8,1 8,1 44 24 96 52 SSE
21.08.2019 13:00:00 8,8 7,0 39 21 102 55 S
21.08.2019 12:00:00 8,8 7,5 46 25 100 54 SSE
21.08.2019 11:00:00 8,4 8,3 34 18 78 42 SSE
21.08.2019 10:00:00 8,2 8,2 29 16 78 42 SSE
21.08.2019 09:00:00 8,1 8,1 34 18 63 34 SSE
21.08.2019 08:00:00 8,4 8,4 26 14 61 33 S
21.08.2019 07:00:00 8,5 8,5 46 25 65 35 S
21.08.2019 06:00:00 8,6 8,6 46 25 59 32 SSW
21.08.2019 05:00:00 8,7 8,7 42 23 55 30 SSW
21.08.2019 04:00:00 8,1 8,1 24 13 48 26 S
21.08.2019 03:00:00 7,6 7,6 37 20 46 25 SSE
21.08.2019 02:00:00 8,3 6,1 29 16 - - SSE
21.08.2019 01:00:00 8,1 4,8 31 17 - - SSE
21.08.2019 00:00:00 8,2 4,1 28 15 - - SSE
20.08.2019 23:00:00 8,1 4,1 31 17 - - S
20.08.2019 22:00:00 7,9 3,3 29 16 - - S
20.08.2019 21:00:00 7,7 5,3 28 15 - - S
20.08.2019 20:00:00 7,4 5,8 28 15 - - S
20.08.2019 19:00:00 7,9 4,3 26 14 - - SSW
20.08.2019 18:00:00 8,1 5,3 31 17 - - SSW
20.08.2019 17:00:00 8,4 6,4 26 14 - - SSW
20.08.2019 16:00:00 8,0 7,1 15 8 - - S
20.08.2019 15:00:00 7,9 6,0 18 10 - - S
20.08.2019 14:00:00 8,1 4,5 16 9 - - SSW
20.08.2019 13:00:00 7,9 1,6 15 8 - - SW
20.08.2019 12:00:00 7,0 6,6 13 7 - - SW
20.08.2019 11:00:00 6,1 6,0 13 7 - - WSW
20.08.2019 10:00:00 5,6 5,6 15 8 - - WSW
20.08.2019 09:00:00 5,4 5,4 13 7 - - W
20.08.2019 08:00:00 5,2 5,2 15 8 - - W
20.08.2019 07:00:00 5,4 5,4 15 8 - - W
20.08.2019 06:00:00 5,5 5,5 16 9 - - WNW
20.08.2019 05:00:00 5,7 5,7 16 9 - - NW
20.08.2019 04:00:00 5,5 5,5 15 8 - - WNW
20.08.2019 03:00:00 5,5 5,5 13 7 - - NNW
20.08.2019 02:00:00 5,9 5,9 21 11 - - NNW
20.08.2019 01:00:00 6,1 6,1 24 13 - - NW
20.08.2019 00:00:00 5,9 5,9 26 14 - - NW
19.08.2019 23:00:00 6,6 6,6 21 11 - - NW
19.08.2019 22:00:00 6,4 6,4 29 16 - - NW
19.08.2019 21:00:00 7,1 7,1 24 13 - - NW
19.08.2019 20:00:00 6,9 6,9 28 15 - - NNW
19.08.2019 19:00:00 7,3 7,2 29 16 - - NW
19.08.2019 18:00:00 7,2 7,2 37 20 - - WNW
19.08.2019 17:00:00 7,3 7,3 34 18 - - NW
19.08.2019 16:00:00 8,0 8,0 34 18 48 26 WNW
19.08.2019 15:00:00 7,7 7,7 34 18 46 25 NW
19.08.2019 14:00:00 8,2 8,2 39 21 59 32 SW
19.08.2019 13:00:00 7,7 7,7 41 22 50 27 SW
19.08.2019 12:00:00 7,8 7,7 42 23 57 31 WSW
19.08.2019 11:00:00 7,2 7,2 52 28 61 33 WSW
19.08.2019 10:00:00 7,4 7,4 50 27 65 35 WSW
19.08.2019 09:00:00 7,3 7,3 39 21 55 30 WSW
19.08.2019 08:00:00 7,2 7,1 34 18 50 27 W
19.08.2019 07:00:00 7,2 7,2 39 21 55 30 W
19.08.2019 06:00:00 7,3 7,3 39 21 54 29 W
19.08.2019 05:00:00 7,8 7,7 41 22 52 28 WNW
19.08.2019 04:00:00 8,3 8,3 31 17 48 26 W
19.08.2019 03:00:00 7,7 7,7 35 19 54 29 WSW
19.08.2019 02:00:00 8,3 8,3 37 20 48 26 W
19.08.2019 01:00:00 8,2 8,2 37 20 48 26 W
19.08.2019 00:00:00 8,1 8,1 35 19 50 27 W
18.08.2019 23:00:00 8,1 8,1 37 20 50 27 W
18.08.2019 22:00:00 8,1 8,1 29 16 48 26 W
18.08.2019 21:00:00 8,2 8,2 41 22 52 28 W
18.08.2019 20:00:00 8,3 8,2 42 23 68 37 WNW
18.08.2019 19:00:00 8,1 8,1 52 28 70 38 WNW
18.08.2019 18:00:00 7,7 7,7 42 23 54 29 WNW
18.08.2019 17:00:00 7,5 7,5 44 24 57 31 W
18.08.2019 16:00:00 7,7 7,7 42 23 61 33 WNW
18.08.2019 15:00:00 8,4 8,3 46 25 59 32 WNW
18.08.2019 14:00:00 8,7 8,7 35 19 46 25 W
18.08.2019 13:00:00 8,3 8,3 39 21 50 27 W
18.08.2019 12:00:00 8,1 8,1 41 22 54 29 W
18.08.2019 11:00:00 8,4 8,3 41 22 63 34 WSW
18.08.2019 10:00:00 8,1 8,1 52 28 74 40 SSW
18.08.2019 09:00:00 8,2 8,2 26 14 76 41 SSW
18.08.2019 08:00:00 7,7 7,7 41 22 70 38 S
18.08.2019 07:00:00 7,8 7,8 13 7 72 39 SSE
18.08.2019 06:00:00 7,9 7,9 48 26 80 43 S
18.08.2019 05:00:00 7,9 7,9 59 32 81 44 S
18.08.2019 04:00:00 8,0 8,0 65 35 89 48 SSW
18.08.2019 03:00:00 8,2 8,2 65 35 98 53 SSW
18.08.2019 02:00:00 8,0 8,0 41 22 91 49 S
18.08.2019 01:00:00 7,9 7,9 42 23 93 50 S
18.08.2019 00:00:00 7,9 7,9 61 33 100 54 S
17.08.2019 23:00:00 8,1 8,1 70 38 98 53 S
17.08.2019 22:00:00 7,8 7,8 44 24 104 56 S
17.08.2019 21:00:00 7,7 7,7 63 34 117 63 S
17.08.2019 20:00:00 7,8 7,8 61 33 94 51 S
17.08.2019 19:00:00 7,8 7,8 68 37 106 57 S
17.08.2019 18:00:00 7,2 7,2 41 22 107 58 S
17.08.2019 17:00:00 7,3 7,3 29 16 94 51 S
17.08.2019 16:00:00 7,5 7,5 68 37 106 57 S
17.08.2019 15:00:00 7,4 7,3 68 37 111 60 SSW
17.08.2019 14:00:00 7,4 7,4 63 34 113 61 S
17.08.2019 13:00:00 7,0 7,0 67 36 94 51 SSW

tt = temperature
td = dewpoint
ff = wind speed
fx = gusts
dd = wind direction

Next stations